sensor_id;sensor_type;location;lat;lon;timestamp;temperature;humidity
66740;DHT22;53653;52.188;8.602;2024-01-30T00:01:16;4.21;88.61
66740;DHT22;53653;52.188;8.602;2024-01-30T00:03:42;4.06;88.95
66740;DHT22;53653;52.188;8.602;2024-01-30T00:06:08;3.99;89.26
66740;DHT22;53653;52.188;8.602;2024-01-30T00:08:33;3.88;89.62
66740;DHT22;53653;52.188;8.602;2024-01-30T00:10:59;3.77;89.87
66740;DHT22;53653;52.188;8.602;2024-01-30T00:13:24;3.77;89.72
66740;DHT22;53653;52.188;8.602;2024-01-30T00:15:50;3.74;89.67
66740;DHT22;53653;52.188;8.602;2024-01-30T00:18:15;3.69;89.75
66740;DHT22;53653;52.188;8.602;2024-01-30T00:20:41;3.70;89.87
66740;DHT22;53653;52.188;8.602;2024-01-30T00:23:08;3.73;89.88
66740;DHT22;53653;52.188;8.602;2024-01-30T00:25:33;3.74;90.04
66740;DHT22;53653;52.188;8.602;2024-01-30T00:27:59;3.78;90.17
66740;DHT22;53653;52.188;8.602;2024-01-30T00:30:24;3.83;90.13
66740;DHT22;53653;52.188;8.602;2024-01-30T00:32:49;3.83;89.58
66740;DHT22;53653;52.188;8.602;2024-01-30T00:35:15;3.88;89.27
66740;DHT22;53653;52.188;8.602;2024-01-30T00:37:40;3.94;89.97
66740;DHT22;53653;52.188;8.602;2024-01-30T00:40:06;3.99;90.02
66740;DHT22;53653;52.188;8.602;2024-01-30T00:42:32;4.02;89.81
66740;DHT22;53653;52.188;8.602;2024-01-30T00:44:57;3.98;89.75
66740;DHT22;53653;52.188;8.602;2024-01-30T00:47:23;4.04;90.50
66740;DHT22;53653;52.188;8.602;2024-01-30T00:49:48;4.12;90.58
66740;DHT22;53653;52.188;8.602;2024-01-30T00:52:14;4.14;90.27
66740;DHT22;53653;52.188;8.602;2024-01-30T00:54:39;4.02;90.25
66740;DHT22;53653;52.188;8.602;2024-01-30T00:57:04;3.93;90.68
66740;DHT22;53653;52.188;8.602;2024-01-30T00:59:30;3.95;91.03
66740;DHT22;53653;52.188;8.602;2024-01-30T01:01:55;3.93;90.80
66740;DHT22;53653;52.188;8.602;2024-01-30T01:04:20;4.02;91.05
66740;DHT22;53653;52.188;8.602;2024-01-30T01:06:47;4.05;90.97
66740;DHT22;53653;52.188;8.602;2024-01-30T01:09:12;4.06;90.76
66740;DHT22;53653;52.188;8.602;2024-01-30T01:11:38;4.09;90.77
66740;DHT22;53653;52.188;8.602;2024-01-30T01:14:04;4.11;90.87
66740;DHT22;53653;52.188;8.602;2024-01-30T01:16:30;4.09;90.77
66740;DHT22;53653;52.188;8.602;2024-01-30T01:18:55;4.02;90.79
66740;DHT22;53653;52.188;8.602;2024-01-30T01:21:21;4.01;91.27
66740;DHT22;53653;52.188;8.602;2024-01-30T01:23:46;4.02;91.36
66740;DHT22;53653;52.188;8.602;2024-01-30T01:26:11;3.98;90.94
66740;DHT22;53653;52.188;8.602;2024-01-30T01:28:40;3.93;91.16
66740;DHT22;53653;52.188;8.602;2024-01-30T01:31:06;3.85;91.09
66740;DHT22;53653;52.188;8.602;2024-01-30T01:33:34;3.78;90.86
66740;DHT22;53653;52.188;8.602;2024-01-30T01:36:02;3.73;90.80
66740;DHT22;53653;52.188;8.602;2024-01-30T01:38:28;3.66;91.12
66740;DHT22;53653;52.188;8.602;2024-01-30T01:40:53;3.46;91.25
66740;DHT22;53653;52.188;8.602;2024-01-30T01:43:19;3.30;91.93
66740;DHT22;53653;52.188;8.602;2024-01-30T01:45:45;3.27;92.25
66740;DHT22;53653;52.188;8.602;2024-01-30T01:48:11;3.33;92.77
66740;DHT22;53653;52.188;8.602;2024-01-30T01:50:38;3.36;92.42
66740;DHT22;53653;52.188;8.602;2024-01-30T01:53:05;3.29;92.32
66740;DHT22;53653;52.188;8.602;2024-01-30T01:55:32;3.35;92.45
66740;DHT22;53653;52.188;8.602;2024-01-30T01:57:58;3.40;92.85
66740;DHT22;53653;52.188;8.602;2024-01-30T02:00:24;3.40;92.62
66740;DHT22;53653;52.188;8.602;2024-01-30T02:02:50;3.37;92.83
66740;DHT22;53653;52.188;8.602;2024-01-30T02:05:17;3.39;92.57
66740;DHT22;53653;52.188;8.602;2024-01-30T02:07:43;3.56;93.33
66740;DHT22;53653;52.188;8.602;2024-01-30T02:10:09;3.66;93.00
66740;DHT22;53653;52.188;8.602;2024-01-30T02:12:37;3.77;93.41
66740;DHT22;53653;52.188;8.602;2024-01-30T02:15:03;3.85;92.94
66740;DHT22;53653;52.188;8.602;2024-01-30T02:17:30;3.94;92.77
66740;DHT22;53653;52.188;8.602;2024-01-30T02:19:56;4.05;92.68
66740;DHT22;53653;52.188;8.602;2024-01-30T02:22:22;3.97;91.47
66740;DHT22;53653;52.188;8.602;2024-01-30T02:24:47;3.91;91.66
66740;DHT22;53653;52.188;8.602;2024-01-30T02:27:13;3.81;91.83
66740;DHT22;53653;52.188;8.602;2024-01-30T02:29:38;3.77;92.81
66740;DHT22;53653;52.188;8.602;2024-01-30T02:32:04;3.88;93.24
66740;DHT22;53653;52.188;8.602;2024-01-30T02:34:30;3.83;92.58
66740;DHT22;53653;52.188;8.602;2024-01-30T02:36:56;3.90;92.97
66740;DHT22;53653;52.188;8.602;2024-01-30T02:39:21;4.05;93.16
66740;DHT22;53653;52.188;8.602;2024-01-30T02:41:47;4.09;92.76
66740;DHT22;53653;52.188;8.602;2024-01-30T02:44:12;4.06;92.61
66740;DHT22;53653;52.188;8.602;2024-01-30T02:46:37;4.22;92.87
66740;DHT22;53653;52.188;8.602;2024-01-30T02:49:03;4.31;92.70
66740;DHT22;53653;52.188;8.602;2024-01-30T02:51:28;4.32;92.44
66740;DHT22;53653;52.188;8.602;2024-01-30T02:53:53;4.33;92.13
66740;DHT22;53653;52.188;8.602;2024-01-30T02:56:19;4.41;92.32
66740;DHT22;53653;52.188;8.602;2024-01-30T02:58:44;4.41;92.08
66740;DHT22;53653;52.188;8.602;2024-01-30T03:01:10;4.45;92.28
66740;DHT22;53653;52.188;8.602;2024-01-30T03:03:35;4.52;92.25
66740;DHT22;53653;52.188;8.602;2024-01-30T03:06:01;4.50;92.07
66740;DHT22;53653;52.188;8.602;2024-01-30T03:08:27;4.57;91.87
66740;DHT22;53653;52.188;8.602;2024-01-30T03:10:52;4.57;91.93
66740;DHT22;53653;52.188;8.602;2024-01-30T03:13:18;4.60;91.90
66740;DHT22;53653;52.188;8.602;2024-01-30T03:15:43;4.66;91.90
66740;DHT22;53653;52.188;8.602;2024-01-30T03:18:09;4.73;91.71
66740;DHT22;53653;52.188;8.602;2024-01-30T03:20:34;4.70;91.59
66740;DHT22;53653;52.188;8.602;2024-01-30T03:23:00;4.74;91.40
66740;DHT22;53653;52.188;8.602;2024-01-30T03:25:25;4.69;91.56
66740;DHT22;53653;52.188;8.602;2024-01-30T03:27:51;4.69;91.65
66740;DHT22;53653;52.188;8.602;2024-01-30T03:30:16;4.69;91.65
66740;DHT22;53653;52.188;8.602;2024-01-30T03:32:42;4.70;91.80
66740;DHT22;53653;52.188;8.602;2024-01-30T03:35:08;4.70;91.75
66740;DHT22;53653;52.188;8.602;2024-01-30T03:37:33;4.74;91.81
66740;DHT22;53653;52.188;8.602;2024-01-30T03:39:59;4.80;91.59
66740;DHT22;53653;52.188;8.602;2024-01-30T03:42:24;4.83;91.59
66740;DHT22;53653;52.188;8.602;2024-01-30T03:44:50;4.83;91.57
66740;DHT22;53653;52.188;8.602;2024-01-30T03:47:18;4.79;91.49
66740;DHT22;53653;52.188;8.602;2024-01-30T03:49:44;4.81;91.70
66740;DHT22;53653;52.188;8.602;2024-01-30T03:52:10;4.77;91.59
66740;DHT22;53653;52.188;8.602;2024-01-30T03:54:35;4.73;91.55
66740;DHT22;53653;52.188;8.602;2024-01-30T03:57:00;4.73;91.76
66740;DHT22;53653;52.188;8.602;2024-01-30T03:59:26;4.69;91.87
66740;DHT22;53653;52.188;8.602;2024-01-30T04:01:51;4.69;91.85
66740;DHT22;53653;52.188;8.602;2024-01-30T04:04:18;4.70;91.90
66740;DHT22;53653;52.188;8.602;2024-01-30T04:06:44;4.70;91.97
66740;DHT22;53653;52.188;8.602;2024-01-30T04:09:09;4.69;91.98
66740;DHT22;53653;52.188;8.602;2024-01-30T04:11:35;4.74;92.02
66740;DHT22;53653;52.188;8.602;2024-01-30T04:14:00;4.77;92.06
66740;DHT22;53653;52.188;8.602;2024-01-30T04:16:26;4.77;91.98
66740;DHT22;53653;52.188;8.602;2024-01-30T04:18:52;4.80;92.08
66740;DHT22;53653;52.188;8.602;2024-01-30T04:21:17;4.80;92.15
66740;DHT22;53653;52.188;8.602;2024-01-30T04:23:43;4.77;91.99
66740;DHT22;53653;52.188;8.602;2024-01-30T04:26:08;4.79;92.09
66740;DHT22;53653;52.188;8.602;2024-01-30T04:28:34;4.77;92.07
66740;DHT22;53653;52.188;8.602;2024-01-30T04:30:59;4.74;92.11
66740;DHT22;53653;52.188;8.602;2024-01-30T04:33:24;4.74;92.21
66740;DHT22;53653;52.188;8.602;2024-01-30T04:35:50;4.72;92.29
66740;DHT22;53653;52.188;8.602;2024-01-30T04:38:15;4.72;92.31
66740;DHT22;53653;52.188;8.602;2024-01-30T04:40:41;4.70;92.52
66740;DHT22;53653;52.188;8.602;2024-01-30T04:43:06;4.73;92.45
66740;DHT22;53653;52.188;8.602;2024-01-30T04:45:31;4.79;92.25
66740;DHT22;53653;52.188;8.602;2024-01-30T04:47:57;4.80;92.38
66740;DHT22;53653;52.188;8.602;2024-01-30T04:50:23;4.79;92.28
66740;DHT22;53653;52.188;8.602;2024-01-30T04:52:48;4.84;92.30
66740;DHT22;53653;52.188;8.602;2024-01-30T04:55:14;4.87;92.25
66740;DHT22;53653;52.188;8.602;2024-01-30T04:57:39;4.90;92.46
66740;DHT22;53653;52.188;8.602;2024-01-30T05:00:05;4.93;92.13
66740;DHT22;53653;52.188;8.602;2024-01-30T05:02:31;4.94;92.46
66740;DHT22;53653;52.188;8.602;2024-01-30T05:04:56;4.94;92.37
66740;DHT22;53653;52.188;8.602;2024-01-30T05:07:24;4.94;92.36
66740;DHT22;53653;52.188;8.602;2024-01-30T05:09:49;4.98;91.95
66740;DHT22;53653;52.188;8.602;2024-01-30T05:12:15;5.03;92.41
66740;DHT22;53653;52.188;8.602;2024-01-30T05:14:40;5.12;92.18
66740;DHT22;53653;52.188;8.602;2024-01-30T05:17:05;5.18;91.90
66740;DHT22;53653;52.188;8.602;2024-01-30T05:19:31;5.27;91.76
66740;DHT22;53653;52.188;8.602;2024-01-30T05:21:57;5.32;91.35
66740;DHT22;53653;52.188;8.602;2024-01-30T05:24:22;5.34;91.41
66740;DHT22;53653;52.188;8.602;2024-01-30T05:26:47;5.38;91.52
66740;DHT22;53653;52.188;8.602;2024-01-30T05:29:13;5.41;91.31
66740;DHT22;53653;52.188;8.602;2024-01-30T05:31:38;5.42;91.21
66740;DHT22;53653;52.188;8.602;2024-01-30T05:34:04;5.45;91.15
66740;DHT22;53653;52.188;8.602;2024-01-30T05:36:29;5.51;91.15
66740;DHT22;53653;52.188;8.602;2024-01-30T05:38:56;5.55;91.00
66740;DHT22;53653;52.188;8.602;2024-01-30T05:41:21;5.52;90.72
66740;DHT22;53653;52.188;8.602;2024-01-30T05:43:46;5.59;90.57
66740;DHT22;53653;52.188;8.602;2024-01-30T05:46:12;5.58;90.49
66740;DHT22;53653;52.188;8.602;2024-01-30T05:48:37;5.55;90.61
66740;DHT22;53653;52.188;8.602;2024-01-30T05:51:03;5.58;90.45
66740;DHT22;53653;52.188;8.602;2024-01-30T05:53:29;5.62;90.32
66740;DHT22;53653;52.188;8.602;2024-01-30T05:55:55;5.62;90.28
66740;DHT22;53653;52.188;8.602;2024-01-30T05:58:20;5.60;90.33
66740;DHT22;53653;52.188;8.602;2024-01-30T06:00:46;5.60;90.30
66740;DHT22;53653;52.188;8.602;2024-01-30T06:03:12;5.60;90.26
66740;DHT22;53653;52.188;8.602;2024-01-30T06:05:37;5.63;90.14
66740;DHT22;53653;52.188;8.602;2024-01-30T06:08:03;5.66;89.96
66740;DHT22;53653;52.188;8.602;2024-01-30T06:10:28;5.65;89.93
66740;DHT22;53653;52.188;8.602;2024-01-30T06:12:54;5.65;89.90
66740;DHT22;53653;52.188;8.602;2024-01-30T06:15:19;5.60;89.75
66740;DHT22;53653;52.188;8.602;2024-01-30T06:17:44;5.58;89.82
66740;DHT22;53653;52.188;8.602;2024-01-30T06:20:10;5.56;89.87
66740;DHT22;53653;52.188;8.602;2024-01-30T06:22:35;5.56;89.75
66740;DHT22;53653;52.188;8.602;2024-01-30T06:25:01;5.59;89.79
66740;DHT22;53653;52.188;8.602;2024-01-30T06:27:26;5.55;89.97
66740;DHT22;53653;52.188;8.602;2024-01-30T06:29:52;5.55;89.99
66740;DHT22;53653;52.188;8.602;2024-01-30T06:32:17;5.52;90.01
66740;DHT22;53653;52.188;8.602;2024-01-30T06:34:43;5.49;90.07
66740;DHT22;53653;52.188;8.602;2024-01-30T06:37:09;5.53;89.99
66740;DHT22;53653;52.188;8.602;2024-01-30T06:39:35;5.51;89.95
66740;DHT22;53653;52.188;8.602;2024-01-30T06:42:00;5.46;89.78
66740;DHT22;53653;52.188;8.602;2024-01-30T06:44:26;5.42;89.83
66740;DHT22;53653;52.188;8.602;2024-01-30T06:46:51;5.34;89.93
66740;DHT22;53653;52.188;8.602;2024-01-30T06:49:16;5.34;89.90
66740;DHT22;53653;52.188;8.602;2024-01-30T06:51:43;5.24;89.94
66740;DHT22;53653;52.188;8.602;2024-01-30T06:54:08;5.17;90.10
66740;DHT22;53653;52.188;8.602;2024-01-30T06:56:34;5.08;90.28
66740;DHT22;53653;52.188;8.602;2024-01-30T06:58:59;5.05;90.32
66740;DHT22;53653;52.188;8.602;2024-01-30T07:01:30;5.01;90.51
66740;DHT22;53653;52.188;8.602;2024-01-30T07:03:57;4.90;90.73
66740;DHT22;53653;52.188;8.602;2024-01-30T07:06:22;4.88;90.84
66740;DHT22;53653;52.188;8.602;2024-01-30T07:08:49;4.87;90.93
66740;DHT22;53653;52.188;8.602;2024-01-30T07:11:22;4.88;90.97
66740;DHT22;53653;52.188;8.602;2024-01-30T07:13:50;4.88;90.90
66740;DHT22;53653;52.188;8.602;2024-01-30T07:16:16;4.90;90.98
66740;DHT22;53653;52.188;8.602;2024-01-30T07:18:41;4.90;91.02
66740;DHT22;53653;52.188;8.602;2024-01-30T07:21:06;4.90;90.88
66740;DHT22;53653;52.188;8.602;2024-01-30T07:23:32;4.87;90.87
66740;DHT22;53653;52.188;8.602;2024-01-30T07:25:59;4.97;90.86
66740;DHT22;53653;52.188;8.602;2024-01-30T07:28:24;4.93;90.82
66740;DHT22;53653;52.188;8.602;2024-01-30T07:30:50;4.97;90.84
66740;DHT22;53653;52.188;8.602;2024-01-30T07:33:16;5.00;90.76
66740;DHT22;53653;52.188;8.602;2024-01-30T07:35:41;5.01;90.71
66740;DHT22;53653;52.188;8.602;2024-01-30T07:38:06;5.01;90.55
66740;DHT22;53653;52.188;8.602;2024-01-30T07:40:32;5.03;90.51
66740;DHT22;53653;52.188;8.602;2024-01-30T07:42:58;5.04;90.52
66740;DHT22;53653;52.188;8.602;2024-01-30T07:45:24;5.04;90.42
66740;DHT22;53653;52.188;8.602;2024-01-30T07:47:51;5.01;90.47
66740;DHT22;53653;52.188;8.602;2024-01-30T07:50:16;5.01;90.45
66740;DHT22;53653;52.188;8.602;2024-01-30T07:52:43;5.01;90.51
66740;DHT22;53653;52.188;8.602;2024-01-30T07:55:09;5.00;90.60
66740;DHT22;53653;52.188;8.602;2024-01-30T07:57:34;4.98;90.60
66740;DHT22;53653;52.188;8.602;2024-01-30T08:00:01;4.98;90.62
66740;DHT22;53653;52.188;8.602;2024-01-30T08:02:26;5.01;90.63
66740;DHT22;53653;52.188;8.602;2024-01-30T08:04:51;4.98;90.73
66740;DHT22;53653;52.188;8.602;2024-01-30T08:07:17;5.03;90.73
66740;DHT22;53653;52.188;8.602;2024-01-30T08:09:43;5.07;90.62
66740;DHT22;53653;52.188;8.602;2024-01-30T08:12:09;5.07;90.72
66740;DHT22;53653;52.188;8.602;2024-01-30T08:14:34;5.12;90.56
66740;DHT22;53653;52.188;8.602;2024-01-30T08:17:00;5.24;90.47
66740;DHT22;53653;52.188;8.602;2024-01-30T08:19:25;5.32;90.27
66740;DHT22;53653;52.188;8.602;2024-01-30T08:21:50;5.36;90.14
66740;DHT22;53653;52.188;8.602;2024-01-30T08:24:16;5.39;89.98
66740;DHT22;53653;52.188;8.602;2024-01-30T08:26:41;5.42;89.70
66740;DHT22;53653;52.188;8.602;2024-01-30T08:29:07;5.43;89.77
66740;DHT22;53653;52.188;8.602;2024-01-30T08:31:32;5.45;89.78
66740;DHT22;53653;52.188;8.602;2024-01-30T08:33:57;5.38;89.56
66740;DHT22;53653;52.188;8.602;2024-01-30T08:36:23;5.30;89.66
66740;DHT22;53653;52.188;8.602;2024-01-30T08:38:49;5.28;89.93
66740;DHT22;53653;52.188;8.602;2024-01-30T08:41:14;5.27;90.01
66740;DHT22;53653;52.188;8.602;2024-01-30T08:43:40;5.32;90.11
66740;DHT22;53653;52.188;8.602;2024-01-30T08:46:05;5.42;89.99
66740;DHT22;53653;52.188;8.602;2024-01-30T08:48:31;5.56;89.77
66740;DHT22;53653;52.188;8.602;2024-01-30T08:50:56;5.72;89.26
66740;DHT22;53653;52.188;8.602;2024-01-30T08:53:21;5.90;88.53
66740;DHT22;53653;52.188;8.602;2024-01-30T08:55:47;6.14;88.60
66740;DHT22;53653;52.188;8.602;2024-01-30T08:58:12;6.42;89.53
66740;DHT22;53653;52.188;8.602;2024-01-30T09:00:38;6.78;89.66
66740;DHT22;53653;52.188;8.602;2024-01-30T09:03:03;7.31;88.55
66740;DHT22;53653;52.188;8.602;2024-01-30T09:05:29;7.68;87.18
66740;DHT22;53653;52.188;8.602;2024-01-30T09:07:55;7.89;86.16
66740;DHT22;53653;52.188;8.602;2024-01-30T09:10:20;8.02;85.28
66740;DHT22;53653;52.188;8.602;2024-01-30T09:12:46;8.06;84.57
66740;DHT22;53653;52.188;8.602;2024-01-30T09:15:11;7.99;84.34
66740;DHT22;53653;52.188;8.602;2024-01-30T09:17:37;7.96;84.38
66740;DHT22;53653;52.188;8.602;2024-01-30T09:20:02;7.93;84.29
66740;DHT22;53653;52.188;8.602;2024-01-30T09:22:28;7.89;84.31
66740;DHT22;53653;52.188;8.602;2024-01-30T09:24:53;7.87;84.14
66740;DHT22;53653;52.188;8.602;2024-01-30T09:27:19;7.85;84.20
66740;DHT22;53653;52.188;8.602;2024-01-30T09:29:45;7.90;84.00
66740;DHT22;53653;52.188;8.602;2024-01-30T09:32:10;7.86;83.88
66740;DHT22;53653;52.188;8.602;2024-01-30T09:34:36;7.92;83.97
66740;DHT22;53653;52.188;8.602;2024-01-30T09:37:01;7.85;84.40
66740;DHT22;53653;52.188;8.602;2024-01-30T09:39:27;7.86;84.05
66740;DHT22;53653;52.188;8.602;2024-01-30T09:42:17;7.82;83.79
66740;DHT22;53653;52.188;8.602;2024-01-30T09:44:46;7.90;83.98
66740;DHT22;53653;52.188;8.602;2024-01-30T09:47:12;7.89;83.77
66740;DHT22;53653;52.188;8.602;2024-01-30T09:49:39;7.83;83.90
66740;DHT22;53653;52.188;8.602;2024-01-30T09:52:07;7.82;83.71
66740;DHT22;53653;52.188;8.602;2024-01-30T09:54:33;7.83;83.55
66740;DHT22;53653;52.188;8.602;2024-01-30T09:56:59;7.79;83.70
66740;DHT22;53653;52.188;8.602;2024-01-30T09:59:25;7.71;83.81
66740;DHT22;53653;52.188;8.602;2024-01-30T10:01:50;7.74;83.99
66740;DHT22;53653;52.188;8.602;2024-01-30T10:04:16;7.71;83.91
66740;DHT22;53653;52.188;8.602;2024-01-30T10:06:42;7.66;84.04
66740;DHT22;53653;52.188;8.602;2024-01-30T10:09:07;7.64;84.30
66740;DHT22;53653;52.188;8.602;2024-01-30T10:11:35;7.52;84.43
66740;DHT22;53653;52.188;8.602;2024-01-30T10:14:01;7.48;84.95
66740;DHT22;53653;52.188;8.602;2024-01-30T10:16:26;7.52;85.12
66740;DHT22;53653;52.188;8.602;2024-01-30T10:18:51;7.58;85.01
66740;DHT22;53653;52.188;8.602;2024-01-30T10:21:17;7.69;84.91
66740;DHT22;53653;52.188;8.602;2024-01-30T10:23:43;7.79;84.84
66740;DHT22;53653;52.188;8.602;2024-01-30T10:26:10;7.97;84.67
66740;DHT22;53653;52.188;8.602;2024-01-30T10:28:36;8.14;84.37
66740;DHT22;53653;52.188;8.602;2024-01-30T10:31:02;8.41;84.35
66740;DHT22;53653;52.188;8.602;2024-01-30T10:33:29;8.72;83.87
66740;DHT22;53653;52.188;8.602;2024-01-30T10:36:01;9.01;83.63
66740;DHT22;53653;52.188;8.602;2024-01-30T10:38:29;9.29;83.34
66740;DHT22;53653;52.188;8.602;2024-01-30T10:40:59;9.65;82.62
66740;DHT22;53653;52.188;8.602;2024-01-30T10:43:32;10.03;81.70
66740;DHT22;53653;52.188;8.602;2024-01-30T10:46:10;10.50;80.90
66740;DHT22;53653;52.188;8.602;2024-01-30T10:48:42;10.85;80.08
66740;DHT22;53653;52.188;8.602;2024-01-30T10:51:09;11.11;79.43
66740;DHT22;53653;52.188;8.602;2024-01-30T10:53:35;11.31;78.85
66740;DHT22;53653;52.188;8.602;2024-01-30T10:56:01;11.56;78.25
66740;DHT22;53653;52.188;8.602;2024-01-30T10:58:27;11.89;77.65
66740;DHT22;53653;52.188;8.602;2024-01-30T11:00:54;12.13;77.11
66740;DHT22;53653;52.188;8.602;2024-01-30T11:03:19;12.27;76.39
66740;DHT22;53653;52.188;8.602;2024-01-30T11:05:50;12.30;76.48
66740;DHT22;53653;52.188;8.602;2024-01-30T11:08:23;12.38;76.13
66740;DHT22;53653;52.188;8.602;2024-01-30T11:10:49;12.35;75.81
66740;DHT22;53653;52.188;8.602;2024-01-30T11:13:15;12.45;75.67
66740;DHT22;53653;52.188;8.602;2024-01-30T11:15:41;12.37;75.72
66740;DHT22;53653;52.188;8.602;2024-01-30T11:18:06;12.42;75.73
66740;DHT22;53653;52.188;8.602;2024-01-30T11:20:32;12.41;75.59
66740;DHT22;53653;52.188;8.602;2024-01-30T11:22:58;12.37;75.87
66740;DHT22;53653;52.188;8.602;2024-01-30T11:25:25;12.28;75.78
66740;DHT22;53653;52.188;8.602;2024-01-30T11:27:55;12.42;75.59
66740;DHT22;53653;52.188;8.602;2024-01-30T11:30:31;12.44;75.69
66740;DHT22;53653;52.188;8.602;2024-01-30T11:33:04;12.34;75.71
66740;DHT22;53653;52.188;8.602;2024-01-30T11:35:32;12.37;75.97
66740;DHT22;53653;52.188;8.602;2024-01-30T11:37:59;12.35;75.98
66740;DHT22;53653;52.188;8.602;2024-01-30T11:40:27;12.30;76.05
66740;DHT22;53653;52.188;8.602;2024-01-30T11:42:54;12.28;76.16
66740;DHT22;53653;52.188;8.602;2024-01-30T11:45:20;12.30;76.33
66740;DHT22;53653;52.188;8.602;2024-01-30T11:47:45;12.30;76.45
66740;DHT22;53653;52.188;8.602;2024-01-30T11:50:11;12.28;76.30
66740;DHT22;53653;52.188;8.602;2024-01-30T11:52:36;12.30;76.42
66740;DHT22;53653;52.188;8.602;2024-01-30T11:55:02;12.24;76.71
66740;DHT22;53653;52.188;8.602;2024-01-30T11:57:29;12.34;76.39
66740;DHT22;53653;52.188;8.602;2024-01-30T11:59:54;12.38;76.21
66740;DHT22;53653;52.188;8.602;2024-01-30T12:02:19;12.42;76.09
66740;DHT22;53653;52.188;8.602;2024-01-30T12:04:45;12.45;76.03
66740;DHT22;53653;52.188;8.602;2024-01-30T12:07:11;12.49;76.05
66740;DHT22;53653;52.188;8.602;2024-01-30T12:09:37;12.46;76.13
66740;DHT22;53653;52.188;8.602;2024-01-30T12:12:03;12.44;76.02
66740;DHT22;53653;52.188;8.602;2024-01-30T12:14:28;12.41;76.05
66740;DHT22;53653;52.188;8.602;2024-01-30T12:16:54;12.21;76.56
66740;DHT22;53653;52.188;8.602;2024-01-30T12:19:26;12.25;76.57
66740;DHT22;53653;52.188;8.602;2024-01-30T12:21:57;12.16;76.93
66740;DHT22;53653;52.188;8.602;2024-01-30T12:24:27;12.20;76.93
66740;DHT22;53653;52.188;8.602;2024-01-30T12:26:59;12.13;77.05
66740;DHT22;53653;52.188;8.602;2024-01-30T12:29:25;12.11;77.25
66740;DHT22;53653;52.188;8.602;2024-01-30T12:31:54;12.05;77.38
66740;DHT22;53653;52.188;8.602;2024-01-30T12:34:20;12.03;77.69
66740;DHT22;53653;52.188;8.602;2024-01-30T12:36:47;12.07;77.44
66740;DHT22;53653;52.188;8.602;2024-01-30T12:39:14;12.00;77.69
66740;DHT22;53653;52.188;8.602;2024-01-30T12:41:40;11.97;77.89
66740;DHT22;53653;52.188;8.602;2024-01-30T12:44:06;11.89;78.19
66740;DHT22;53653;52.188;8.602;2024-01-30T12:46:34;11.86;78.34
66740;DHT22;53653;52.188;8.602;2024-01-30T12:48:59;11.77;78.80
66740;DHT22;53653;52.188;8.602;2024-01-30T12:51:25;11.79;78.69
66740;DHT22;53653;52.188;8.602;2024-01-30T12:53:50;11.94;78.39
66740;DHT22;53653;52.188;8.602;2024-01-30T12:56:16;11.83;78.75
66740;DHT22;53653;52.188;8.602;2024-01-30T12:58:42;11.77;79.29
66740;DHT22;53653;52.188;8.602;2024-01-30T13:01:08;11.73;79.34
66740;DHT22;53653;52.188;8.602;2024-01-30T13:03:34;11.75;79.44
66740;DHT22;53653;52.188;8.602;2024-01-30T13:06:00;11.72;79.79
66740;DHT22;53653;52.188;8.602;2024-01-30T13:08:25;11.69;79.82
66740;DHT22;53653;52.188;8.602;2024-01-30T13:10:51;11.82;79.79
66740;DHT22;53653;52.188;8.602;2024-01-30T13:13:16;11.95;79.58
66740;DHT22;53653;52.188;8.602;2024-01-30T13:15:42;12.00;79.52
66740;DHT22;53653;52.188;8.602;2024-01-30T13:18:07;12.01;79.55
66740;DHT22;53653;52.188;8.602;2024-01-30T13:20:33;12.00;79.76
66740;DHT22;53653;52.188;8.602;2024-01-30T13:22:58;12.08;79.55
66740;DHT22;53653;52.188;8.602;2024-01-30T13:25:24;12.13;79.61
66740;DHT22;53653;52.188;8.602;2024-01-30T13:27:49;12.24;79.29
66740;DHT22;53653;52.188;8.602;2024-01-30T13:30:15;12.30;79.08
66740;DHT22;53653;52.188;8.602;2024-01-30T13:32:40;12.31;79.01
66740;DHT22;53653;52.188;8.602;2024-01-30T13:35:09;12.30;79.10
66740;DHT22;53653;52.188;8.602;2024-01-30T13:37:35;12.31;79.18
66740;DHT22;53653;52.188;8.602;2024-01-30T13:40:02;12.30;79.14
66740;DHT22;53653;52.188;8.602;2024-01-30T13:42:28;12.25;79.37
66740;DHT22;53653;52.188;8.602;2024-01-30T13:44:53;12.25;79.47
66740;DHT22;53653;52.188;8.602;2024-01-30T13:47:19;12.18;79.77
66740;DHT22;53653;52.188;8.602;2024-01-30T13:49:46;12.20;79.78
66740;DHT22;53653;52.188;8.602;2024-01-30T13:52:12;12.16;79.97
66740;DHT22;53653;52.188;8.602;2024-01-30T13:54:38;12.23;79.77
66740;DHT22;53653;52.188;8.602;2024-01-30T13:57:04;12.25;79.89
66740;DHT22;53653;52.188;8.602;2024-01-30T13:59:29;12.23;79.91
66740;DHT22;53653;52.188;8.602;2024-01-30T14:01:55;12.30;79.93
66740;DHT22;53653;52.188;8.602;2024-01-30T14:04:20;12.27;79.98
66740;DHT22;53653;52.188;8.602;2024-01-30T14:06:45;12.34;79.83
66740;DHT22;53653;52.188;8.602;2024-01-30T14:09:11;12.28;80.08
66740;DHT22;53653;52.188;8.602;2024-01-30T14:11:36;12.23;80.33
66740;DHT22;53653;52.188;8.602;2024-01-30T14:14:02;12.30;80.23
66740;DHT22;53653;52.188;8.602;2024-01-30T14:16:27;12.27;80.42
66740;DHT22;53653;52.188;8.602;2024-01-30T14:18:54;12.23;80.57
66740;DHT22;53653;52.188;8.602;2024-01-30T14:21:19;12.18;80.72
66740;DHT22;53653;52.188;8.602;2024-01-30T14:23:45;12.14;80.94
66740;DHT22;53653;52.188;8.602;2024-01-30T14:26:10;12.11;81.20
66740;DHT22;53653;52.188;8.602;2024-01-30T14:28:35;12.20;80.95
66740;DHT22;53653;52.188;8.602;2024-01-30T14:31:01;12.18;80.97
66740;DHT22;53653;52.188;8.602;2024-01-30T14:33:26;12.20;81.10
66740;DHT22;53653;52.188;8.602;2024-01-30T14:35:52;12.17;81.23
66740;DHT22;53653;52.188;8.602;2024-01-30T14:38:17;12.21;81.22
66740;DHT22;53653;52.188;8.602;2024-01-30T14:40:43;12.20;81.27
66740;DHT22;53653;52.188;8.602;2024-01-30T14:43:08;12.18;81.34
66740;DHT22;53653;52.188;8.602;2024-01-30T14:45:33;12.16;81.49
66740;DHT22;53653;52.188;8.602;2024-01-30T14:47:59;12.10;81.56
66740;DHT22;53653;52.188;8.602;2024-01-30T14:50:25;12.14;81.42
66740;DHT22;53653;52.188;8.602;2024-01-30T14:52:53;12.04;81.84
66740;DHT22;53653;52.188;8.602;2024-01-30T14:55:19;11.95;82.11
66740;DHT22;53653;52.188;8.602;2024-01-30T14:57:44;11.97;82.11
66740;DHT22;53653;52.188;8.602;2024-01-30T15:00:11;12.03;82.02
66740;DHT22;53653;52.188;8.602;2024-01-30T15:02:37;12.00;81.78
66740;DHT22;53653;52.188;8.602;2024-01-30T15:05:03;12.04;81.46
66740;DHT22;53653;52.188;8.602;2024-01-30T15:07:29;12.00;81.48
66740;DHT22;53653;52.188;8.602;2024-01-30T15:09:54;11.95;81.71
66740;DHT22;53653;52.188;8.602;2024-01-30T15:12:22;12.01;81.18
66740;DHT22;53653;52.188;8.602;2024-01-30T15:14:47;12.07;80.96
66740;DHT22;53653;52.188;8.602;2024-01-30T15:17:19;11.97;81.37
66740;DHT22;53653;52.188;8.602;2024-01-30T15:19:47;11.93;81.60
66740;DHT22;53653;52.188;8.602;2024-01-30T15:22:12;11.90;81.63
66740;DHT22;53653;52.188;8.602;2024-01-30T15:24:38;11.93;81.38
66740;DHT22;53653;52.188;8.602;2024-01-30T15:27:04;11.94;81.07
66740;DHT22;53653;52.188;8.602;2024-01-30T15:29:30;11.93;81.06
66740;DHT22;53653;52.188;8.602;2024-01-30T15:31:55;11.98;80.89
66740;DHT22;53653;52.188;8.602;2024-01-30T15:34:21;11.94;80.78